Time;durP1;ratioP1;P1;durP2;ratioP2;P2;SDS_P1;SDS_P2;PMS_P1;PMS_P2;Temp;Humidity;BMP_temperature;BMP_pressure;BME280_temperature;BME280_humidity;BME280_pressure;Samples;Min_cycle;Max_cycle;Signal;HPM_P1;HPM_P2
2022/12/17 13:06:12;;;;;;;16.13;9.13;;;22.60;60.00;;;;;;4921792;29;20032;-70
2022/12/17 13:08:38;;;;;;;14.93;8.40;;;22.70;59.90;;;;;;4985277;28;20440;-70
2022/12/17 13:11:35;;;;;;;13.52;8.85;;;22.60;60.00;;;;;;4989746;28;20045;-69
2022/12/17 13:14:10;;;;;;;11.48;7.15;;;22.60;59.80;;;;;;4970467;28;20051;-70
2022/12/17 13:17:00;;;;;;;13.68;8.20;;;22.60;59.80;;;;;;4971091;28;20423;-70
2022/12/17 13:20:01;;;;;;;10.77;7.30;;;22.60;60.00;;;;;;4971785;28;20042;-70
2022/12/17 13:22:32;;;;;;;11.85;5.40;;;22.70;59.80;;;;;;5001861;28;20121;-70
2022/12/17 13:25:20;;;;;;;10.80;6.40;;;22.80;59.70;;;;;;5010490;28;20052;-70
2022/12/17 13:27:48;;;;;;;8.18;6.07;;;22.70;59.10;;;;;;5009831;28;20033;-70
2022/12/17 13:30:17;;;;;;;7.90;5.85;;;22.80;58.90;;;;;;5010359;28;20081;-70
2022/12/17 13:33:07;;;;;;;8.60;6.10;;;22.80;58.40;;;;;;5010977;28;20195;-70
2022/12/17 13:36:00;;;;;;;5.75;3.92;;;22.80;58.90;;;;;;5010936;28;20064;-69
2022/12/17 13:38:35;;;;;;;8.80;6.03;;;22.90;59.20;;;;;;5009730;28;20545;-70
2022/12/17 13:41:32;;;;;;;8.48;6.28;;;22.80;58.30;;;;;;5009924;28;20754;-70
2022/12/17 13:44:03;;;;;;;6.95;5.45;;;23.00;59.30;;;;;;4970717;28;20491;-70
2022/12/17 13:46:40;;;;;;;8.68;5.90;;;22.90;59.20;;;;;;4971569;28;20054;-70
2022/12/17 13:49:27;;;;;;;8.63;5.80;;;23.00;58.60;;;;;;4971195;28;20581;-70
2022/12/17 13:52:03;;;;;;;8.10;5.65;;;23.00;58.20;;;;;;4969840;28;20047;-70
2022/12/17 13:54:29;;;;;;;8.98;5.60;;;22.90;58.10;;;;;;4971561;28;20474;-70
2022/12/17 13:57:06;;;;;;;7.32;4.95;;;22.90;59.00;;;;;;4971302;28;20047;-70
2022/12/17 13:59:32;;;;;;;6.53;4.90;;;23.00;58.90;;;;;;4970836;28;20086;-69
2022/12/17 14:01:58;;;;;;;8.68;4.95;;;22.90;58.60;;;;;;4971178;28;20047;-70
2022/12/17 14:04:28;;;;;;;6.20;4.95;;;23.10;59.00;;;;;;4971356;28;20041;-70
2022/12/17 14:07:02;;;;;;;6.20;4.85;;;23.00;58.90;;;;;;4971308;28;20038;-70
2022/12/17 14:09:35;;;;;;;6.25;4.50;;;23.00;59.00;;;;;;4968631;28;20035;-70
2022/12/17 14:12:21;;;;;;;5.82;4.10;;;23.00;58.30;;;;;;4970142;28;20186;-70
2022/12/17 14:14:57;;;;;;;6.88;5.57;;;23.00;58.80;;;;;;5001705;28;20131;-70
2022/12/17 14:17:45;;;;;;;5.93;4.78;;;23.00;58.90;;;;;;5009714;28;20034;-70
2022/12/17 14:20:11;;;;;;;6.03;4.63;;;23.00;59.00;;;;;;5027008;28;20123;-70
2022/12/17 14:22:41;;;;;;;5.45;4.90;;;22.90;57.80;;;;;;5084483;28;20041;-70
2022/12/17 14:25:34;;;;;;;4.70;4.07;;;22.90;58.40;;;;;;5073612;28;20691;-70
2022/12/17 14:28:04;;;;;;;6.70;4.53;;;22.80;58.60;;;;;;5080548;28;20044;-71
2022/12/17 14:30:38;;;;;;;5.15;3.97;;;22.80;59.00;;;;;;5082041;28;20048;-70
2022/12/17 14:33:26;;;;;;;7.45;4.63;;;22.70;59.00;;;;;;5082008;28;20127;-70
2022/12/17 14:35:54;;;;;;;4.28;3.65;;;22.80;57.90;;;;;;5087735;28;20074;-71
2022/12/17 14:38:24;;;;;;;4.13;3.25;;;22.70;61.10;;;;;;5090782;28;20031;-70
2022/12/17 14:40:50;;;;;;;6.00;4.15;;;22.70;62.70;;;;;;5073139;28;20565;-71
2022/12/17 14:43:24;;;;;;;3.70;3.05;;;22.80;63.80;;;;;;5090609;28;20055;-70
2022/12/17 14:49:00;;;;;;;5.57;3.72;;;22.80;63.90;;;;;;5091224;28;20039;-72
2022/12/17 14:51:31;;;;;;;3.90;3.05;;;22.80;62.90;;;;;;5090842;28;20036;-73
2022/12/17 14:54:15;;;;;;;3.33;2.85;;;22.80;62.50;;;;;;5091064;28;20511;-70
2022/12/17 14:56:43;;;;;;;5.50;4.35;;;22.90;58.60;;;;;;5078675;28;20071;-71
2022/12/17 14:59:23;;;;;;;11.95;4.47;;;22.80;56.60;;;;;;5083755;28;20166;-71
2022/12/17 15:01:50;;;;;;;8.65;4.60;;;22.90;54.60;;;;;;5077504;28;20556;-71
2022/12/17 15:04:16;;;;;;;4.95;4.10;;;23.20;54.60;;;;;;5082403;28;20039;-70
2022/12/17 15:06:43;;;;;;;7.68;3.30;;;23.40;53.70;;;;;;5080225;28;20085;-71
2022/12/17 15:09:13;;;;;;;6.07;2.88;;;23.40;54.60;;;;;;5080895;28;20020;-72
2022/12/17 15:11:39;;;;;;;11.65;5.25;;;23.60;55.50;;;;;;5078774;28;20035;-71
2022/12/17 15:14:05;;;;;;;2.10;1.50;;;23.60;51.20;;;;;;5069417;28;20103;-74
2022/12/17 15:16:31;;;;;;;7.00;4.07;;;23.80;67.30;;;;;;5061654;28;20087;-70
2022/12/17 15:18:57;;;;;;;4.50;1.77;;;24.10;62.50;;;;;;5001327;28;20107;-75
2022/12/17 15:21:24;;;;;;;4.45;3.13;;;24.00;57.30;;;;;;5066933;28;20040;-74
2022/12/17 15:23:51;;;;;;;3.80;3.40;;;23.90;56.90;;;;;;5067072;28;20043;-75
2022/12/17 15:26:18;;;;;;;3.15;2.88;;;23.90;55.90;;;;;;5047153;28;20036;-75
2022/12/17 15:28:45;;;;;;;3.10;2.55;;;23.90;54.80;;;;;;5059704;28;20351;-74
2022/12/17 15:31:13;;;;;;;3.65;2.83;;;23.80;49.70;;;;;;5053520;28;20378;-75
2022/12/17 15:33:40;;;;;;;2.85;2.15;;;23.80;51.60;;;;;;5051455;28;20085;-74
2022/12/17 15:36:06;;;;;;;2.47;2.28;;;23.70;51.70;;;;;;4995692;28;20394;-74
2022/12/17 15:38:32;;;;;;;3.38;2.30;;;23.70;51.80;;;;;;5058777;28;20101;-74
2022/12/17 15:43:09;;;;;;;3.08;2.70;;;23.80;52.00;;;;;;5060262;28;20444;-70
2022/12/17 15:43:49;;;;;;;4.68;3.13;;;23.70;52.90;;;;;;5052825;28;20789;-73
2022/12/17 15:46:15;;;;;;;81.88;19.30;;;23.90;51.10;;;;;;5062893;28;20086;-73
2022/12/17 15:48:41;;;;;;;37.05;13.20;;;23.90;49.10;;;;;;5057650;28;20032;-71
2022/12/17 15:51:07;;;;;;;5.93;3.63;;;24.00;51.90;;;;;;5061721;28;20127;-71
2022/12/17 15:53:33;;;;;;;5.55;3.65;;;23.90;43.70;;;;;;5065850;28;20124;-73
2022/12/17 15:56:00;;;;;;;50.50;14.60;;;23.90;44.00;;;;;;5007100;28;20041;-72
2022/12/17 15:58:26;;;;;;;11.55;4.13;;;24.20;46.90;;;;;;5051767;28;20040;-73
2022/12/17 16:00:52;;;;;;;5.53;3.00;;;24.00;43.90;;;;;;5066826;28;20431;-71
2022/12/17 16:03:18;;;;;;;4.30;2.78;;;24.10;39.10;;;;;;5067474;28;20048;-72
2022/12/17 16:05:44;;;;;;;4.20;2.95;;;24.00;39.20;;;;;;5037520;28;20082;-71
2022/12/17 16:08:10;;;;;;;5.40;3.15;;;24.10;39.10;;;;;;5067264;28;20036;-72
2022/12/17 16:10:36;;;;;;;4.85;3.30;;;24.10;38.50;;;;;;5066054;28;20044;-71
2022/12/17 16:13:03;;;;;;;6.13;3.35;;;24.10;36.10;;;;;;5052116;28;20028;-71
2022/12/17 16:15:29;;;;;;;6.65;3.95;;;24.00;36.90;;;;;;5054326;28;20064;-72
2022/12/17 16:17:55;;;;;;;7.43;3.90;;;24.00;37.40;;;;;;5059509;28;20179;-72
2022/12/17 16:20:22;;;;;;;3.80;2.45;;;24.10;36.30;;;;;;5056180;28;20033;-76
2022/12/17 16:22:48;;;;;;;3.38;2.92;;;24.10;38.70;;;;;;5047961;28;20048;-75
2022/12/17 16:25:14;;;;;;;4.20;3.03;;;24.20;48.20;;;;;;5061095;28;20040;-75
2022/12/17 16:27:41;;;;;;;4.25;2.70;;;24.10;49.70;;;;;;5066167;28;20056;-74
2022/12/17 16:30:08;;;;;;;2.90;2.45;;;23.90;50.90;;;;;;5054995;28;20052;-74
2022/12/17 16:32:34;;;;;;;3.58;2.90;;;23.90;51.70;;;;;;5050737;28;20040;-73
2022/12/17 16:35:00;;;;;;;4.93;2.85;;;23.80;51.50;;;;;;5061520;28;20040;-74
2022/12/17 16:37:26;;;;;;;4.05;2.60;;;23.80;52.60;;;;;;5052535;28;20486;-74
2022/12/17 16:39:52;;;;;;;2.90;2.40;;;23.70;52.00;;;;;;5059237;28;20517;-74
2022/12/17 16:42:18;;;;;;;3.28;2.75;;;23.70;52.70;;;;;;5069224;28;20120;-76
2022/12/17 16:44:44;;;;;;;4.03;3.03;;;23.70;52.30;;;;;;5063529;28;20120;-76
2022/12/17 16:47:10;;;;;;;4.82;2.88;;;23.40;53.70;;;;;;5070504;28;20064;-75
2022/12/17 16:49:36;;;;;;;4.35;3.13;;;23.60;54.70;;;;;;5069290;28;20751;-72
2022/12/17 16:52:02;;;;;;;7.30;3.90;;;23.50;56.40;;;;;;5067337;28;20036;-74
2022/12/17 16:54:31;;;;;;;6.00;4.03;;;23.80;50.10;;;;;;5061395;28;20040;-72
2022/12/17 16:56:57;;;;;;;13.25;9.45;;;23.90;46.50;;;;;;5041780;28;20024;-71
2022/12/17 16:59:26;;;;;;;4.38;3.00;;;23.90;49.50;;;;;;5067797;28;20093;-76
2022/12/17 17:01:52;;;;;;;5.85;3.65;;;24.00;43.10;;;;;;5065411;28;20028;-71
2022/12/17 17:04:21;;;;;;;59.97;33.70;;;24.00;45.40;;;;;;5061006;28;20047;-75
2022/12/17 17:06:50;;;;;;;11.32;5.05;;;24.10;46.90;;;;;;5049627;28;20036;-70
2022/12/17 17:09:16;;;;;;;4.68;3.47;;;24.10;41.60;;;;;;5056618;28;20041;-75
2022/12/17 17:11:42;;;;;;;4.88;3.78;;;24.10;38.90;;;;;;5061632;28;20037;-74
2022/12/17 17:14:09;;;;;;;5.70;3.65;;;24.00;39.70;;;;;;5059612;28;20052;-73
2022/12/17 17:16:36;;;;;;;6.07;4.53;;;24.00;40.50;;;;;;5048707;28;20068;-74
2022/12/17 17:19:04;;;;;;;4.55;3.28;;;24.00;38.70;;;;;;5065044;28;20044;-72
2022/12/17 17:21:37;;;;;;;4.28;3.00;;;23.90;39.30;;;;;;5066183;28;20032;-72
2022/12/17 17:24:03;;;;;;;;;;;23.90;39.30;;;;;;5051931;28;20032;-75
2022/12/17 17:26:32;;;;;;;3.90;3.20;;;23.90;50.20;;;;;;5064950;28;19908;-74
2022/12/17 17:28:58;;;;;;;5.82;2.58;;;23.90;53.00;;;;;;5050939;28;20071;-74
2022/12/17 17:31:24;;;;;;;4.68;3.03;;;23.80;54.10;;;;;;5063522;28;20151;-71
2022/12/17 17:33:51;;;;;;;3.45;2.78;;;23.60;57.10;;;;;;5069701;28;20040;-76
2022/12/17 17:36:22;;;;;;;5.38;3.00;;;23.60;55.20;;;;;;5069419;28;20028;-75
2022/12/17 17:38:52;;;;;;;5.97;3.13;;;23.60;56.10;;;;;;5067118;28;20044;-74
2022/12/17 17:41:23;;;;;;;9.15;3.47;;;23.60;59.20;;;;;;5064924;28;20481;-71
2022/12/17 17:44:03;;;;;;;3.75;3.08;;;23.50;57.60;;;;;;5064068;28;20029;-71
2022/12/17 17:46:30;;;;;;;2.72;2.35;;;23.40;58.30;;;;;;5060026;28;20033;-71
2022/12/17 17:48:58;;;;;;;3.97;2.92;;;23.30;55.20;;;;;;5052619;28;20036;-70
2022/12/17 17:51:27;;;;;;;4.80;4.03;;;23.30;55.40;;;;;;5045790;28;20776;-71
2022/12/17 17:53:54;;;;;;;4.30;2.17;;;23.30;56.40;;;;;;5056480;28;20037;-71
2022/12/17 17:56:22;;;;;;;2.47;1.83;;;23.30;55.50;;;;;;5068809;28;20142;-70
2022/12/17 17:58:51;;;;;;;2.00;1.85;;;23.20;54.20;;;;;;5070184;28;20118;-70
2022/12/17 18:01:21;;;;;;;3.75;2.33;;;23.20;55.70;;;;;;5066114;28;20088;-69
2022/12/17 18:03:47;;;;;;;2.58;2.28;;;23.20;55.80;;;;;;5036526;28;20831;-70
2022/12/17 18:06:13;;;;;;;3.13;2.13;;;23.00;54.50;;;;;;5072045;28;20028;-71
2022/12/17 18:08:40;;;;;;;2.25;2.00;;;23.20;56.20;;;;;;5053408;28;20032;-69
2022/12/17 18:11:10;;;;;;;2.92;1.98;;;23.20;56.70;;;;;;5052371;28;20036;-69
2022/12/17 18:13:54;;;;;;;4.10;2.10;;;23.20;55.40;;;;;;5057732;28;20068;-69
2022/12/17 18:16:25;;;;;;;2.63;2.00;;;23.10;57.70;;;;;;5067710;28;20482;-71
2022/12/17 18:18:57;;;;;;;3.88;2.20;;;23.20;56.90;;;;;;5067256;28;20049;-68
2022/12/17 18:21:25;;;;;;;3.47;2.75;;;23.20;56.70;;;;;;5015036;28;20047;-69
2022/12/17 18:24:02;;;;;;;2.78;2.40;;;23.10;57.60;;;;;;5053971;28;20437;-69
2022/12/17 18:26:31;;;;;;;2.90;2.47;;;23.00;58.00;;;;;;5051113;28;20690;-70
2022/12/17 18:29:01;;;;;;;3.00;2.60;;;23.10;57.90;;;;;;5057313;28;20045;-71
2022/12/17 18:31:29;;;;;;;3.50;2.17;;;23.00;57.70;;;;;;5069182;28;20109;-70
2022/12/17 18:33:58;;;;;;;3.08;2.10;;;23.00;58.20;;;;;;5068547;28;20036;-71
2022/12/17 18:36:30;;;;;;;4.75;2.90;;;22.90;57.60;;;;;;5055920;28;20075;-71
2022/12/17 18:39:03;;;;;;;3.33;2.47;;;23.00;57.00;;;;;;5050667;28;20056;-69
2022/12/17 18:44:14;;;;;;;3.60;2.60;;;22.90;58.30;;;;;;5050956;28;20064;-70
2022/12/17 18:46:40;;;;;;;4.35;3.30;;;22.80;58.70;;;;;;4994006;28;20117;-69
2022/12/17 18:49:09;;;;;;;4.35;3.22;;;22.80;58.20;;;;;;5039436;28;20045;-69
2022/12/17 18:51:36;;;;;;;3.53;2.65;;;22.70;56.60;;;;;;5046011;28;20080;-69
2022/12/17 18:54:05;;;;;;;6.82;3.20;;;22.70;58.40;;;;;;5041540;28;20053;-70
2022/12/17 18:56:33;;;;;;;4.28;2.67;;;22.80;58.60;;;;;;5021229;28;20041;-69
2022/12/17 18:58:59;;;;;;;3.92;3.40;;;22.80;58.90;;;;;;5042395;28;20045;-69
2022/12/17 19:01:27;;;;;;;6.43;4.50;;;22.80;59.20;;;;;;5045151;28;20043;-70
2022/12/17 19:03:54;;;;;;;8.10;4.47;;;22.80;58.90;;;;;;5039080;28;20040;-69
2022/12/17 19:06:22;;;;;;;4.30;3.20;;;22.80;59.50;;;;;;5041722;28;20112;-68
2022/12/17 19:08:49;;;;;;;6.60;3.28;;;22.70;59.90;;;;;;5045636;28;20052;-68
2022/12/17 19:11:18;;;;;;;4.72;3.33;;;22.80;59.70;;;;;;5028096;28;20049;-68
2022/12/17 19:13:45;;;;;;;5.20;3.45;;;22.70;59.70;;;;;;5058644;28;20079;-68
2022/12/17 19:16:16;;;;;;;4.88;3.08;;;22.90;58.90;;;;;;5085632;28;20185;-68
2022/12/17 19:18:43;;;;;;;5.05;2.90;;;22.70;57.60;;;;;;5085280;28;20036;-69
2022/12/17 19:21:14;;;;;;;5.30;3.75;;;22.70;60.70;;;;;;5071869;28;20087;-69
2022/12/17 19:23:41;;;;;;;5.93;4.18;;;22.50;60.30;;;;;;5048973;28;20420;-67
2022/12/17 19:26:16;;;;;;;2.88;2.53;;;22.60;58.40;;;;;;5068273;28;20139;-68
2022/12/17 19:28:45;;;;;;;6.85;4.07;;;22.40;59.30;;;;;;5071378;28;20047;-67
2022/12/17 19:31:13;;;;;;;7.53;5.03;;;22.30;59.40;;;;;;5089118;28;20036;-68
2022/12/17 19:33:39;;;;;;;5.00;4.50;;;22.40;57.40;;;;;;5076375;28;20389;-68
2022/12/17 19:36:18;;;;;;;7.35;5.05;;;22.20;60.20;;;;;;5074872;28;20036;-69
2022/12/17 19:38:45;;;;;;;6.13;4.65;;;22.20;58.50;;;;;;5083944;28;20040;-68
2022/12/17 19:41:14;;;;;;;6.47;4.53;;;22.10;61.70;;;;;;5082748;28;20016;-68
2022/12/17 19:43:41;;;;;;;8.77;5.60;;;22.40;60.50;;;;;;5080002;28;20078;-68
2022/12/17 19:46:17;;;;;;;10.70;6.45;;;22.50;57.70;;;;;;5077797;28;20024;-67
2022/12/17 19:48:45;;;;;;;9.88;6.57;;;22.50;60.50;;;;;;5076210;28;20067;-69
2022/12/17 19:51:13;;;;;;;8.63;5.57;;;22.60;57.40;;;;;;5087895;28;20044;-68
2022/12/17 19:53:41;;;;;;;11.10;6.10;;;22.50;58.50;;;;;;5087280;28;20047;-68
2022/12/17 19:56:14;;;;;;;9.05;6.38;;;22.50;60.90;;;;;;5067890;28;20028;-68
2022/12/17 19:58:40;;;;;;;8.18;6.10;;;22.60;59.90;;;;;;5073791;28;20032;-70
2022/12/17 20:01:08;;;;;;;8.65;6.35;;;22.60;61.30;;;;;;5075565;28;20021;-71
2022/12/17 20:03:35;;;;;;;11.00;7.47;;;22.60;61.50;;;;;;5084573;28;20542;-70
2022/12/17 20:06:01;;;;;;;11.90;6.90;;;22.50;61.80;;;;;;5089254;28;20040;-69
2022/12/17 20:08:27;;;;;;;9.75;6.40;;;22.50;61.70;;;;;;5090675;28;20115;-69
2022/12/17 20:10:53;;;;;;;14.85;8.27;;;22.50;62.40;;;;;;5088385;28;20119;-70
2022/12/17 20:13:19;;;;;;;9.23;6.28;;;22.60;62.30;;;;;;5085156;28;20592;-71
2022/12/17 20:15:45;;;;;;;8.25;6.85;;;22.50;62.80;;;;;;5073942;28;20104;-74
2022/12/17 20:18:12;;;;;;;9.45;7.43;;;22.50;61.70;;;;;;5074363;28;20112;-72
2022/12/17 20:20:38;;;;;;;12.45;7.65;;;22.60;62.10;;;;;;5074439;28;20509;-74
2022/12/17 20:23:04;;;;;;;11.80;7.10;;;22.50;62.30;;;;;;5074553;28;20035;-75
2022/12/17 20:25:30;;;;;;;10.25;7.10;;;22.50;62.60;;;;;;5073658;28;20477;-73
2022/12/17 20:27:56;;;;;;;10.18;6.13;;;22.50;61.70;;;;;;5073158;28;20413;-72
2022/12/17 20:30:23;;;;;;;11.82;6.95;;;22.50;63.20;;;;;;5065791;28;20118;-73
2022/12/17 20:32:52;;;;;;;11.45;6.88;;;22.50;62.90;;;;;;5053864;28;20167;-72
2022/12/17 20:35:19;;;;;;;10.73;7.65;;;22.50;63.40;;;;;;5010381;28;20077;-72
2022/12/17 20:37:45;;;;;;;11.18;6.65;;;22.40;63.40;;;;;;5019600;28;20044;-72
2022/12/17 20:40:11;;;;;;;14.27;9.25;;;22.50;63.90;;;;;;5036152;28;20021;-71
2022/12/17 20:42:37;;;;;;;12.05;8.65;;;22.60;62.90;;;;;;5055975;28;20033;-73
2022/12/17 20:45:03;;;;;;;11.85;8.07;;;22.70;61.90;;;;;;5066326;28;20033;-71
2022/12/17 20:47:29;;;;;;;12.57;6.78;;;22.60;62.80;;;;;;5044033;28;20048;-72
2022/12/17 20:49:55;;;;;;;11.93;7.95;;;22.70;62.80;;;;;;5055959;28;20044;-73
2022/12/17 20:52:21;;;;;;;13.25;7.57;;;22.70;62.30;;;;;;5064493;28;20041;-73
2022/12/17 20:54:48;;;;;;;15.68;8.35;;;22.70;62.00;;;;;;5072071;28;20032;-74
2022/12/17 20:57:14;;;;;;;15.27;8.63;;;22.70;62.00;;;;;;5054575;28;20032;-73
2022/12/17 20:59:40;;;;;;;18.20;8.40;;;22.80;62.50;;;;;;5072595;28;20428;-71
2022/12/17 21:02:06;;;;;;;11.45;7.93;;;22.70;60.70;;;;;;5070177;28;20131;-73
2022/12/17 21:04:32;;;;;;;15.15;8.88;;;22.80;62.80;;;;;;5021485;28;20044;-73
2022/12/17 21:06:58;;;;;;;14.73;8.63;;;22.80;62.80;;;;;;5032931;28;20352;-74
2022/12/17 21:09:24;;;;;;;15.10;8.77;;;22.70;62.90;;;;;;5070999;28;20038;-71
2022/12/17 21:11:50;;;;;;;12.15;7.97;;;22.80;62.70;;;;;;5073284;28;20511;-73
2022/12/17 21:14:17;;;;;;;9.60;5.40;;;22.90;63.00;;;;;;5073855;28;20984;-71
2022/12/17 21:16:44;;;;;;;11.45;7.35;;;22.90;63.00;;;;;;5088149;28;20012;-74
2022/12/17 21:19:16;;;;;;;17.00;8.98;;;22.90;59.80;;;;;;5087973;28;20028;-73
2022/12/17 21:21:42;;;;;;;17.90;9.25;;;22.80;61.60;;;;;;5083316;28;20032;-74
2022/12/17 21:24:08;;;;;;;14.32;8.63;;;22.80;57.90;;;;;;5090465;28;20024;-72
2022/12/17 21:26:38;;;;;;;13.18;8.23;;;22.70;59.90;;;;;;5085325;28;20037;-74
2022/12/17 21:29:06;;;;;;;4.47;3.30;;;22.60;58.80;;;;;;5088626;28;20120;-74
2022/12/17 21:31:39;;;;;;;14.13;8.48;;;22.60;59.00;;;;;;5086448;28;20560;-74
2022/12/17 21:34:06;;;;;;;;;;;22.40;61.20;;;;;;5092347;28;20030;-73
2022/12/17 21:36:33;;;;;;;16.75;9.20;;;22.50;51.50;;;;;;5073177;28;19953;-74
2022/12/17 21:39:00;;;;;;;15.30;8.60;;;22.40;57.90;;;;;;5088264;28;20485;-74
2022/12/17 21:41:30;;;;;;;15.70;8.73;;;22.30;60.50;;;;;;5073963;28;20465;-73
2022/12/17 21:43:58;;;;;;;14.30;8.32;;;22.50;60.80;;;;;;5075530;28;20368;-73
2022/12/17 21:46:28;;;;;;;17.38;10.85;;;22.30;55.20;;;;;;5073088;28;20050;-73
2022/12/17 21:48:56;;;;;;;15.73;9.23;;;22.30;58.00;;;;;;5069167;28;20035;-74
2022/12/17 21:51:22;;;;;;;18.25;9.38;;;22.50;60.80;;;;;;5086667;28;20162;-75
2022/12/17 21:53:54;;;;;;;14.13;8.18;;;22.40;58.90;;;;;;5080437;28;20039;-73
2022/12/17 21:56:21;;;;;;;7.17;5.00;;;22.50;53.80;;;;;;5089807;28;20382;-77
2022/12/17 21:58:48;;;;;;;15.05;9.40;;;22.50;60.00;;;;;;5087548;28;20036;-73
2022/12/17 22:01:24;;;;;;;17.73;9.50;;;22.60;55.30;;;;;;5083781;28;20538;-72
2022/12/17 22:03:52;;;;;;;15.27;10.35;;;22.60;52.10;;;;;;5087463;28;20029;-73
2022/12/17 22:06:20;;;;;;;18.27;11.65;;;22.50;51.20;;;;;;5082907;28;20047;-73
2022/12/17 22:08:46;;;;;;;17.58;10.15;;;22.40;51.50;;;;;;5078954;28;20440;-72
2022/12/17 22:11:15;;;;;;;17.90;10.90;;;22.50;51.80;;;;;;5072987;28;20433;-72
2022/12/17 22:16:28;;;;;;;15.70;9.00;;;22.20;53.00;;;;;;5060538;28;20029;-72
2022/12/17 22:18:58;;;;;;;18.17;10.65;;;22.30;53.90;;;;;;5067145;28;20115;-73
2022/12/17 22:21:25;;;;;;;17.48;11.05;;;22.20;54.50;;;;;;5069019;28;20040;-72
2022/12/17 22:23:51;;;;;;;15.75;10.23;;;22.10;55.10;;;;;;5072236;28;20020;-73
2022/12/17 22:26:19;;;;;;;15.77;9.43;;;22.10;55.20;;;;;;5060078;28;20099;-73
2022/12/17 22:28:47;;;;;;;21.70;10.77;;;22.00;56.10;;;;;;5069993;28;20029;-73
2022/12/17 22:34:01;;;;;;;19.08;11.75;;;21.90;57.00;;;;;;5070229;28;20043;-73
2022/12/17 22:36:28;;;;;;;16.50;9.65;;;21.90;57.50;;;;;;5053196;28;20040;-72
2022/12/17 22:38:54;;;;;;;20.38;12.15;;;22.00;58.00;;;;;;5070161;28;20039;-72
2022/12/17 22:44:04;;;;;;;17.88;10.70;;;22.00;58.20;;;;;;5068694;28;20043;-72
2022/12/17 22:46:31;;;;;;;18.20;11.68;;;21.90;58.20;;;;;;5071590;28;20515;-73
2022/12/17 22:48:57;;;;;;;18.92;11.45;;;21.90;58.60;;;;;;5071967;28;20032;-73
2022/12/17 22:51:25;;;;;;;16.65;10.77;;;21.90;58.80;;;;;;5071339;28;20055;-73
2022/12/17 22:53:51;;;;;;;20.92;11.65;;;21.90;59.30;;;;;;5062304;28;20367;-72
2022/12/17 22:56:19;;;;;;;19.65;11.40;;;21.90;59.50;;;;;;5051447;28;20065;-72
2022/12/17 22:58:45;;;;;;;20.85;12.18;;;21.90;59.80;;;;;;5033660;28;20033;-73
2022/12/17 23:01:11;;;;;;;24.67;12.88;;;21.80;59.80;;;;;;5056371;28;20024;-73
2022/12/17 23:03:37;;;;;;;21.30;12.93;;;21.90;60.10;;;;;;5071437;28;20033;-72
2022/12/17 23:06:09;;;;;;;24.05;12.68;;;21.80;60.10;;;;;;5053436;28;20101;-73
2022/12/17 23:08:35;;;;;;;19.48;12.98;;;21.90;60.70;;;;;;5069752;28;20335;-73
2022/12/17 23:11:13;;;;;;;17.27;10.65;;;21.90;60.60;;;;;;5057244;28;20051;-73
2022/12/17 23:13:40;;;;;;;20.83;11.43;;;21.70;60.90;;;;;;5069940;28;20056;-73
2022/12/17 23:16:07;;;;;;;22.40;12.35;;;21.80;61.00;;;;;;5065053;28;20444;-73
2022/12/17 23:18:33;;;;;;;24.65;12.02;;;21.70;61.00;;;;;;5004766;28;20064;-72
2022/12/17 23:21:09;;;;;;;18.33;11.70;;;21.70;60.90;;;;;;5050905;28;20029;-73
2022/12/17 23:23:36;;;;;;;24.95;14.05;;;21.70;61.50;;;;;;5062347;28;20036;-73
2022/12/17 23:26:07;;;;;;;26.42;13.00;;;21.60;59.60;;;;;;5053094;28;20134;-72
2022/12/17 23:28:33;;;;;;;22.80;12.45;;;21.70;61.10;;;;;;5035211;28;20102;-71
2022/12/17 23:31:06;;;;;;;20.65;12.13;;;21.60;61.30;;;;;;5035158;28;20048;-72
2022/12/17 23:33:32;;;;;;;19.20;12.18;;;21.60;61.50;;;;;;5070789;28;20408;-72
2022/12/17 23:36:03;;;;;;;20.90;12.95;;;21.60;61.50;;;;;;5059100;28;20032;-72
2022/12/17 23:38:29;;;;;;;23.90;12.65;;;21.60;61.80;;;;;;5067915;28;20036;-73
2022/12/17 23:41:06;;;;;;;23.50;13.00;;;21.50;61.50;;;;;;5069914;28;20040;-73
2022/12/17 23:43:32;;;;;;;23.75;12.07;;;21.70;62.00;;;;;;5070973;28;20119;-73
2022/12/17 23:45:59;;;;;;;21.95;12.10;;;21.50;61.90;;;;;;5070957;28;20025;-73
2022/12/17 23:48:29;;;;;;;18.65;11.57;;;21.60;61.90;;;;;;5070726;28;20327;-72
2022/12/17 23:50:56;;;;;;;20.95;12.32;;;21.60;62.00;;;;;;5070673;28;20041;-73
2022/12/17 23:53:22;;;;;;;20.83;11.68;;;21.60;61.80;;;;;;5069309;28;20724;-72
2022/12/17 23:55:48;;;;;;;20.33;12.15;;;21.50;62.00;;;;;;5070725;28;20025;-72
2022/12/17 23:58:14;;;;;;;19.02;10.85;;;21.50;62.10;;;;;;5070792;28;20048;-72
